Time;durP1;ratioP1;P1;durP2;ratioP2;P2;SDS_P1;SDS_P2;PMS_P1;PMS_P2;Temp;Humidity;BMP_temperature;BMP_pressure;BME280_temperature;BME280_humidity;BME280_pressure;Samples;Min_cycle;Max_cycle;Signal;HPM_P1;HPM_P2
2021/10/23 00:00:31;;;;;;;15.70;13.90;;;8.30;99.90;;;;;;5092716;28;20467;-69
2021/10/23 00:02:58;;;;;;;16.10;13.13;;;8.30;99.90;;;;;;5092468;28;20806;-69
2021/10/23 00:05:25;;;;;;;12.93;11.10;;;8.30;99.90;;;;;;5092892;28;20549;-69
2021/10/23 00:07:52;;;;;;;14.27;11.67;;;8.30;99.90;;;;;;5092852;28;20449;-69
2021/10/23 00:10:20;;;;;;;15.00;12.93;;;8.30;99.90;;;;;;5092861;28;20493;-69
2021/10/23 00:12:47;;;;;;;20.33;12.83;;;8.30;99.90;;;;;;5093269;28;20443;-69
2021/10/23 00:15:14;;;;;;;17.17;14.17;;;8.30;99.90;;;;;;5092768;28;20861;-69
2021/10/23 00:17:40;;;;;;;19.40;13.70;;;8.40;99.90;;;;;;5092509;28;20441;-69
2021/10/23 00:20:08;;;;;;;15.57;12.50;;;8.40;99.90;;;;;;5091864;28;20454;-69
2021/10/23 00:22:35;;;;;;;17.93;13.47;;;8.40;99.90;;;;;;5091902;28;20469;-69
2021/10/23 00:25:01;;;;;;;14.90;10.57;;;8.40;99.90;;;;;;5091617;28;20442;-67
2021/10/23 00:27:30;;;;;;;16.43;14.87;;;8.40;99.90;;;;;;5091958;28;20446;-70
2021/10/23 00:29:58;;;;;;;17.13;14.13;;;8.50;99.90;;;;;;5090985;28;20454;-69
2021/10/23 00:32:25;;;;;;;20.13;14.67;;;8.60;99.90;;;;;;5091595;28;20527;-69
2021/10/23 00:34:52;;;;;;;22.77;13.50;;;8.60;99.90;;;;;;5091350;28;20830;-69
2021/10/23 00:37:19;;;;;;;16.73;14.93;;;8.60;99.90;;;;;;5091468;28;20438;-69
2021/10/23 00:39:46;;;;;;;19.03;16.97;;;8.60;99.90;;;;;;5091605;28;20453;-69
2021/10/23 00:42:15;;;;;;;20.37;16.10;;;8.60;99.90;;;;;;5091365;28;20462;-70
2021/10/23 00:44:45;;;;;;;25.40;17.67;;;8.60;99.90;;;;;;5091389;28;20454;-69
2021/10/23 00:47:13;;;;;;;18.40;16.60;;;8.60;99.90;;;;;;5091755;28;20857;-69
2021/10/23 00:49:41;;;;;;;20.00;12.80;;;8.60;99.90;;;;;;5094467;28;20441;-69
2021/10/23 00:52:09;;;;;;;19.57;16.80;;;8.60;99.90;;;;;;5095667;28;20481;-69
2021/10/23 00:54:36;;;;;;;19.77;16.37;;;8.60;99.90;;;;;;5095919;28;20442;-70
2021/10/23 00:57:07;;;;;;;25.57;17.67;;;8.60;99.90;;;;;;5097949;28;20470;-70
2021/10/23 00:59:34;;;;;;;21.30;16.60;;;8.60;99.90;;;;;;5095571;28;20919;-69
2021/10/23 01:02:03;;;;;;;23.43;18.33;;;8.60;99.90;;;;;;5095423;28;20493;-69
2021/10/23 01:04:30;;;;;;;25.70;18.17;;;8.60;99.90;;;;;;5095542;28;20931;-69
2021/10/23 01:06:57;;;;;;;22.87;18.03;;;8.60;99.90;;;;;;5092150;28;20446;-69
2021/10/23 01:09:24;;;;;;;24.20;18.80;;;8.60;99.90;;;;;;5074824;28;20455;-70
2021/10/23 01:11:51;;;;;;;20.57;17.40;;;8.60;99.90;;;;;;5074977;28;20524;-69
2021/10/23 01:14:19;;;;;;;25.60;18.67;;;8.60;99.90;;;;;;5075224;28;20447;-70
2021/10/23 01:16:47;;;;;;;22.30;16.47;;;8.70;99.90;;;;;;5074549;28;20447;-69
2021/10/23 01:19:16;;;;;;;16.97;15.10;;;8.70;99.90;;;;;;5074581;28;20952;-70
2021/10/23 01:21:46;;;;;;;23.03;18.60;;;8.70;99.90;;;;;;5074634;28;20478;-68
2021/10/23 01:24:13;;;;;;;20.47;17.10;;;8.70;99.90;;;;;;5075006;28;20447;-67
2021/10/23 01:26:40;;;;;;;27.47;19.40;;;8.70;99.90;;;;;;5074965;28;20450;-69
2021/10/23 01:29:09;;;;;;;23.43;15.73;;;8.70;99.90;;;;;;5074185;28;20443;-67
2021/10/23 01:31:36;;;;;;;22.40;19.30;;;8.70;99.90;;;;;;5074412;28;21027;-67
2021/10/23 01:34:12;;;;;;;27.83;16.00;;;8.70;99.90;;;;;;5074967;28;20443;-68
2021/10/23 01:36:44;;;;;;;20.53;18.20;;;8.80;99.90;;;;;;5074619;28;20450;-67
2021/10/23 01:39:11;;;;;;;27.73;19.50;;;8.80;99.90;;;;;;5074166;28;20504;-69
2021/10/23 01:41:39;;;;;;;28.10;20.60;;;8.80;99.90;;;;;;5074453;28;20501;-70
2021/10/23 01:44:07;;;;;;;23.27;20.63;;;8.90;99.90;;;;;;5074091;28;20439;-68
2021/10/23 01:46:33;;;;;;;25.90;18.00;;;8.90;99.90;;;;;;5074177;28;20450;-69
2021/10/23 01:49:01;;;;;;;19.13;16.73;;;8.90;99.90;;;;;;5073556;28;20493;-67
2021/10/23 01:51:28;;;;;;;27.07;19.03;;;8.90;99.90;;;;;;5073754;28;20474;-69
2021/10/23 01:53:56;;;;;;;23.83;19.97;;;8.80;99.90;;;;;;5074149;28;20443;-69
2021/10/23 01:56:23;;;;;;;25.27;21.40;;;8.90;99.90;;;;;;5073566;28;20451;-68
2021/10/23 01:58:50;;;;;;;23.10;17.07;;;8.80;99.90;;;;;;5073410;28;20444;-69
2021/10/23 02:01:16;;;;;;;18.23;16.33;;;8.90;99.90;;;;;;5073809;28;20459;-68
2021/10/23 02:03:43;;;;;;;25.33;16.27;;;8.80;99.90;;;;;;5073941;28;20945;-68
2021/10/23 02:06:10;;;;;;;28.40;21.00;;;8.80;99.90;;;;;;5073651;28;20474;-69
2021/10/23 02:08:37;;;;;;;24.40;18.00;;;8.80;99.90;;;;;;5073477;28;20446;-69
2021/10/23 02:11:05;;;;;;;25.03;17.53;;;8.80;99.90;;;;;;5073529;28;20475;-68
2021/10/23 02:13:32;;;;;;;26.97;16.27;;;8.70;99.90;;;;;;5073618;28;20447;-69
2021/10/23 02:15:58;;;;;;;33.90;21.30;;;8.60;99.90;;;;;;5073329;28;20440;-68
2021/10/23 02:18:26;;;;;;;31.13;21.23;;;8.60;99.90;;;;;;5073125;28;20443;-69
2021/10/23 02:20:53;;;;;;;26.50;20.77;;;8.60;99.90;;;;;;5073439;28;20998;-68
2021/10/23 02:23:20;;;;;;;32.17;22.27;;;8.50;99.90;;;;;;5073428;28;20489;-69
2021/10/23 02:25:47;;;;;;;26.53;21.87;;;8.40;99.90;;;;;;5073085;28;20447;-68
2021/10/23 02:28:15;;;;;;;32.60;22.87;;;8.40;99.90;;;;;;5073219;28;20444;-69
2021/10/23 02:30:41;;;;;;;38.80;24.53;;;8.30;99.90;;;;;;5073035;28;20482;-68
2021/10/23 02:33:08;;;;;;;32.47;21.70;;;8.30;99.90;;;;;;5073317;28;20450;-69
2021/10/23 02:35:35;;;;;;;38.20;25.30;;;8.30;99.90;;;;;;5073065;28;20976;-69
2021/10/23 02:38:01;;;;;;;37.03;24.13;;;8.30;99.90;;;;;;5073139;28;20447;-68
2021/10/23 02:40:28;;;;;;;32.70;22.00;;;8.30;99.90;;;;;;5073089;28;20450;-67
2021/10/23 02:42:55;;;;;;;29.50;21.20;;;8.30;99.90;;;;;;5073322;28;20450;-68
2021/10/23 02:45:23;;;;;;;32.73;22.60;;;8.40;99.90;;;;;;5072597;28;20454;-69
2021/10/23 02:47:50;;;;;;;26.83;22.47;;;8.40;99.90;;;;;;5072403;28;20440;-68
2021/10/23 02:50:16;;;;;;;26.13;21.47;;;8.40;99.90;;;;;;5072882;28;20454;-68
2021/10/23 02:52:43;;;;;;;30.90;24.00;;;8.40;99.90;;;;;;5072903;28;20490;-68
2021/10/23 02:55:10;;;;;;;32.07;23.20;;;8.40;99.90;;;;;;5072592;28;20952;-69
2021/10/23 02:57:36;;;;;;;36.57;22.50;;;8.30;99.90;;;;;;5072875;28;20439;-67
2021/10/23 03:00:04;;;;;;;34.80;23.10;;;8.30;99.90;;;;;;5072353;28;20458;-68
2021/10/23 03:02:33;;;;;;;37.00;25.70;;;8.30;99.90;;;;;;5072810;28;20758;-69
2021/10/23 03:05:02;;;;;;;37.07;25.77;;;8.30;99.90;;;;;;5072454;28;20509;-68
2021/10/23 03:07:29;;;;;;;25.63;20.23;;;8.30;99.90;;;;;;5072683;28;20447;-68
2021/10/23 03:09:56;;;;;;;32.37;22.67;;;8.30;99.90;;;;;;5072369;28;20447;-68
2021/10/23 03:12:22;;;;;;;38.87;24.60;;;8.40;99.90;;;;;;5071547;28;20490;-69
2021/10/23 03:14:49;;;;;;;38.93;25.70;;;8.40;99.90;;;;;;5072379;28;20447;-68
2021/10/23 03:17:16;;;;;;;39.20;27.07;;;8.40;99.90;;;;;;5072519;28;20451;-68
2021/10/23 03:19:44;;;;;;;37.23;25.87;;;8.40;99.90;;;;;;5072118;28;20450;-68
2021/10/23 03:22:11;;;;;;;30.60;19.83;;;8.50;99.90;;;;;;5072023;28;20470;-67
2021/10/23 03:24:38;;;;;;;44.57;26.43;;;8.40;99.90;;;;;;5072272;28;20455;-67
2021/10/23 03:27:04;;;;;;;30.80;19.60;;;8.40;99.90;;;;;;5072295;28;20443;-67
2021/10/23 03:29:31;;;;;;;34.67;22.83;;;8.30;99.90;;;;;;5072136;28;20439;-67
2021/10/23 03:31:58;;;;;;;39.80;25.90;;;8.20;99.90;;;;;;5071994;28;20498;-67
2021/10/23 03:34:25;;;;;;;51.67;28.43;;;8.10;99.90;;;;;;5071515;28;20451;-68
2021/10/23 03:36:53;;;;;;;44.03;28.57;;;8.00;99.90;;;;;;5072092;28;20952;-67
2021/10/23 03:39:20;;;;;;;46.57;28.30;;;8.00;99.90;;;;;;5071755;28;20443;-68
2021/10/23 03:41:46;;;;;;;54.20;30.63;;;8.00;99.90;;;;;;5071924;28;20462;-67
2021/10/23 03:44:13;;;;;;;45.43;28.60;;;7.90;99.90;;;;;;5071811;28;20450;-68
2021/10/23 03:46:40;;;;;;;56.70;30.80;;;7.80;99.90;;;;;;5071855;28;20447;-68
2021/10/23 03:49:06;;;;;;;56.20;30.00;;;7.70;99.90;;;;;;5071746;28;20443;-67
2021/10/23 03:51:33;;;;;;;67.50;34.47;;;7.70;99.90;;;;;;5071743;28;20483;-68
2021/10/23 03:54:01;;;;;;;60.50;32.00;;;7.70;99.90;;;;;;5071611;28;20940;-67
2021/10/23 03:56:28;;;;;;;64.63;37.20;;;7.60;99.90;;;;;;5071918;28;20443;-68
2021/10/23 03:58:54;;;;;;;66.37;32.27;;;7.60;99.90;;;;;;5071680;28;20446;-69
2021/10/23 04:01:21;;;;;;;63.93;32.77;;;7.60;99.90;;;;;;5071438;28;20559;-68
2021/10/23 04:03:48;;;;;;;68.13;33.00;;;7.50;99.90;;;;;;5071850;28;20439;-68
2021/10/23 04:06:14;;;;;;;61.90;33.97;;;7.50;99.90;;;;;;5071609;28;20448;-69
2021/10/23 04:08:42;;;;;;;58.83;34.20;;;7.50;99.90;;;;;;5071309;28;20820;-68
2021/10/23 04:11:10;;;;;;;62.17;35.90;;;7.60;99.90;;;;;;5071240;28;20471;-69
2021/10/23 04:13:37;;;;;;;65.90;36.83;;;7.60;99.90;;;;;;5071561;28;20450;-68
2021/10/23 04:16:04;;;;;;;50.27;31.67;;;7.70;99.90;;;;;;5071550;28;20450;-68
2021/10/23 04:18:30;;;;;;;68.20;36.43;;;7.80;99.90;;;;;;5071259;28;20439;-69
2021/10/23 04:20:57;;;;;;;68.90;33.27;;;7.90;99.90;;;;;;5071198;28;20524;-69
2021/10/23 04:23:24;;;;;;;64.20;35.20;;;7.90;99.90;;;;;;5071347;28;20926;-69
2021/10/23 04:25:51;;;;;;;71.20;37.30;;;7.90;99.90;;;;;;5071470;28;20443;-69
2021/10/23 04:28:19;;;;;;;75.83;37.87;;;7.90;99.90;;;;;;5071157;28;20814;-68
2021/10/23 04:30:46;;;;;;;60.97;34.10;;;7.90;99.90;;;;;;5071416;28;20828;-68
2021/10/23 04:33:12;;;;;;;55.77;34.97;;;7.90;99.90;;;;;;5071365;28;20516;-68
2021/10/23 04:35:39;;;;;;;67.83;35.20;;;7.90;99.90;;;;;;5071311;28;20442;-68
2021/10/23 04:38:06;;;;;;;56.27;34.67;;;8.00;99.90;;;;;;5071045;28;20844;-68
2021/10/23 04:40:32;;;;;;;69.10;35.33;;;8.00;99.90;;;;;;5071042;28;20479;-68
2021/10/23 04:42:59;;;;;;;68.97;35.87;;;8.00;99.90;;;;;;5071322;28;20444;-68
2021/10/23 04:45:27;;;;;;;79.93;39.40;;;8.00;99.90;;;;;;5071295;28;20458;-68
2021/10/23 04:47:54;;;;;;;81.13;36.47;;;8.00;99.90;;;;;;5071232;28;20436;-67
2021/10/23 04:50:20;;;;;;;69.67;37.33;;;8.00;99.90;;;;;;5070891;28;20824;-69
2021/10/23 04:52:47;;;;;;;80.93;40.30;;;7.90;99.90;;;;;;5071110;28;20494;-68
2021/10/23 04:55:14;;;;;;;87.50;40.30;;;7.90;99.90;;;;;;5071235;28;20797;-68
2021/10/23 04:57:40;;;;;;;74.40;36.63;;;7.80;99.90;;;;;;5071037;28;20466;-68
2021/10/23 05:00:08;;;;;;;89.07;38.63;;;7.80;99.90;;;;;;5070746;28;20443;-69
2021/10/23 05:02:36;;;;;;;92.33;41.07;;;7.70;99.90;;;;;;5071089;28;20983;-68
2021/10/23 05:05:03;;;;;;;88.30;38.67;;;7.60;99.90;;;;;;5071134;28;20443;-69
2021/10/23 05:07:30;;;;;;;96.00;42.07;;;7.60;99.90;;;;;;5071083;28;20813;-68
2021/10/23 05:09:56;;;;;;;95.10;43.73;;;7.60;99.90;;;;;;5070583;28;20471;-68
2021/10/23 05:12:23;;;;;;;100.23;40.97;;;7.50;99.90;;;;;;5070887;28;20504;-68
2021/10/23 05:14:51;;;;;;;118.40;47.40;;;7.50;99.90;;;;;;5070923;28;20467;-69
2021/10/23 05:17:18;;;;;;;112.20;47.17;;;7.40;99.90;;;;;;5071031;28;20985;-68
2021/10/23 05:19:46;;;;;;;103.03;43.50;;;7.40;99.90;;;;;;5070476;28;20451;-68
2021/10/23 05:22:12;;;;;;;109.57;43.00;;;7.40;99.90;;;;;;5070956;28;20463;-68
2021/10/23 05:24:39;;;;;;;119.20;46.50;;;7.40;99.90;;;;;;5070932;28;20439;-68
2021/10/23 05:27:06;;;;;;;103.27;43.40;;;7.40;99.90;;;;;;5070963;28;20443;-68
2021/10/23 05:29:32;;;;;;;84.43;41.30;;;7.40;99.90;;;;;;5070324;28;20812;-68
2021/10/23 05:32:00;;;;;;;96.40;44.40;;;7.40;99.90;;;;;;5070430;28;20482;-68
2021/10/23 05:34:27;;;;;;;109.33;44.90;;;7.40;99.90;;;;;;5071790;28;20863;-68
2021/10/23 05:36:55;;;;;;;109.60;47.10;;;7.40;99.90;;;;;;5074390;28;20477;-69
2021/10/23 05:39:22;;;;;;;116.83;51.57;;;7.40;99.90;;;;;;5073935;28;20447;-69
2021/10/23 05:41:48;;;;;;;76.53;42.80;;;7.40;99.90;;;;;;5074031;28;20474;-69
2021/10/23 05:44:15;;;;;;;118.90;46.13;;;7.30;99.90;;;;;;5074348;28;20447;-68
2021/10/23 05:46:42;;;;;;;106.23;46.60;;;7.30;99.90;;;;;;5074273;28;20447;-70
2021/10/23 05:49:08;;;;;;;120.33;48.27;;;7.30;99.90;;;;;;5074065;28;20462;-68
2021/10/23 05:51:35;;;;;;;108.43;49.30;;;7.30;99.90;;;;;;5073973;28;20470;-68
2021/10/23 05:54:04;;;;;;;120.77;47.20;;;7.30;99.90;;;;;;5074032;28;20491;-68
2021/10/23 05:56:30;;;;;;;141.30;51.17;;;7.10;99.90;;;;;;5074347;28;20501;-68
2021/10/23 05:59:09;;;;;;;107.07;46.90;;;7.20;99.90;;;;;;5073978;28;20443;-68
2021/10/23 06:01:36;;;;;;;107.93;45.53;;;7.20;99.90;;;;;;5073777;28;20470;-68
2021/10/23 06:04:03;;;;;;;139.10;50.30;;;7.10;99.90;;;;;;5074094;28;20443;-68
2021/10/23 06:06:30;;;;;;;114.27;44.23;;;7.10;99.90;;;;;;5073996;28;20816;-68
2021/10/23 06:08:57;;;;;;;107.97;45.75;;;7.10;99.90;;;;;;5073355;28;20442;-68
2021/10/23 06:11:26;;;;;;;105.83;43.97;;;7.10;99.90;;;;;;5062601;28;20800;-67
2021/10/23 06:13:55;;;;;;;97.43;45.60;;;7.00;99.90;;;;;;5061788;28;21000;-68
2021/10/23 06:16:23;;;;;;;105.57;48.10;;;7.10;99.90;;;;;;5061715;28;20450;-67
2021/10/23 06:18:50;;;;;;;99.47;44.97;;;7.10;99.90;;;;;;5061153;28;20926;-67
2021/10/23 06:21:17;;;;;;;109.50;45.27;;;7.10;99.90;;;;;;5061645;28;20471;-67
2021/10/23 06:23:44;;;;;;;103.70;48.30;;;7.10;99.90;;;;;;5061662;28;20439;-67
2021/10/23 06:26:11;;;;;;;104.77;42.07;;;7.10;99.90;;;;;;5061651;28;20474;-68
2021/10/23 06:28:40;;;;;;;122.53;48.20;;;7.10;99.90;;;;;;5061586;28;20892;-68
2021/10/23 06:31:08;;;;;;;102.43;43.97;;;7.10;99.90;;;;;;5061158;28;20490;-68
2021/10/23 06:33:35;;;;;;;80.43;34.30;;;7.10;99.90;;;;;;5060771;28;20516;-68
2021/10/23 06:36:02;;;;;;;147.52;54.20;;;7.10;99.90;;;;;;5060444;28;20857;-68
2021/10/23 06:38:29;;;;;;;114.40;40.47;;;7.10;99.90;;;;;;5061140;28;20658;-68
2021/10/23 06:40:56;;;;;;;116.73;45.20;;;7.20;99.90;;;;;;5061404;28;20886;-68
2021/10/23 06:43:24;;;;;;;108.67;44.40;;;7.20;99.90;;;;;;5061381;28;20512;-68
2021/10/23 06:45:52;;;;;;;115.30;45.50;;;7.20;99.90;;;;;;5060016;28;20546;-69
2021/10/23 06:48:19;;;;;;;104.73;44.57;;;7.20;99.90;;;;;;5060990;28;20448;-68
2021/10/23 06:50:46;;;;;;;85.83;40.00;;;7.20;99.90;;;;;;5060907;28;20971;-69
2021/10/23 06:53:13;;;;;;;93.60;45.87;;;7.30;99.90;;;;;;5061361;28;20829;-68
2021/10/23 06:55:40;;;;;;;105.00;47.83;;;7.30;99.90;;;;;;5060872;28;21175;-68
2021/10/23 06:58:08;;;;;;;77.20;41.40;;;7.30;99.90;;;;;;5060542;28;20462;-69
2021/10/23 07:00:35;;;;;;;72.70;39.57;;;7.40;99.90;;;;;;5061095;28;20472;-69
2021/10/23 07:03:04;;;;;;;87.43;42.27;;;7.50;99.90;;;;;;5060754;28;20459;-69
2021/10/23 07:05:31;;;;;;;76.83;39.70;;;7.50;99.90;;;;;;5060618;28;20561;-69
2021/10/23 07:07:59;;;;;;;113.73;45.47;;;7.60;99.90;;;;;;5060369;28;20871;-68
2021/10/23 07:10:26;;;;;;;92.60;43.40;;;7.70;99.90;;;;;;5061052;28;20549;-69
2021/10/23 07:12:53;;;;;;;83.07;41.70;;;7.80;99.90;;;;;;5060663;28;20556;-69
2021/10/23 07:15:20;;;;;;;96.97;43.27;;;7.80;99.90;;;;;;5061448;28;21026;-68
2021/10/23 07:17:47;;;;;;;80.20;40.27;;;8.00;99.90;;;;;;5060526;28;20902;-69
2021/10/23 07:20:15;;;;;;;59.50;32.13;;;8.10;99.90;;;;;;5061088;28;20940;-69
2021/10/23 07:22:42;;;;;;;54.30;30.70;;;8.30;99.90;;;;;;5060987;28;20938;-69
2021/10/23 07:25:10;;;;;;;55.13;32.70;;;8.50;99.90;;;;;;5061183;28;20490;-70
2021/10/23 07:27:37;;;;;;;50.67;28.10;;;8.60;99.90;;;;;;5061217;28;20871;-69
2021/10/23 07:30:08;;;;;;;48.67;25.60;;;8.90;99.90;;;;;;5060114;28;20789;-68
2021/10/23 07:32:35;;;;;;;49.13;29.17;;;9.00;99.90;;;;;;5060242;28;20491;-70
2021/10/23 07:35:02;;;;;;;40.47;27.87;;;9.20;99.90;;;;;;5060300;28;21011;-69
2021/10/23 07:37:30;;;;;;;53.00;29.87;;;9.40;99.90;;;;;;5060216;28;20447;-69
2021/10/23 07:39:58;;;;;;;45.83;29.40;;;9.60;99.90;;;;;;5060422;28;20447;-69
2021/10/23 07:42:27;;;;;;;42.13;27.77;;;9.80;99.90;;;;;;5060270;28;20550;-70
2021/10/23 07:44:54;;;;;;;42.90;27.70;;;9.90;99.90;;;;;;5060056;28;20499;-69
2021/10/23 07:47:22;;;;;;;49.53;26.50;;;10.10;99.90;;;;;;5060128;28;20458;-69
2021/10/23 07:49:49;;;;;;;40.53;25.37;;;10.30;99.90;;;;;;5059732;28;20455;-69
2021/10/23 07:52:17;;;;;;;33.63;24.67;;;10.40;99.90;;;;;;5060041;28;20489;-69
2021/10/23 07:54:46;;;;;;;38.17;25.67;;;10.60;99.90;;;;;;5060053;28;20439;-69
2021/10/23 07:57:13;;;;;;;31.73;22.57;;;10.60;99.90;;;;;;5059301;28;20716;-67
2021/10/23 07:59:40;;;;;;;29.27;23.60;;;10.70;99.90;;;;;;5059508;28;20486;-70
2021/10/23 08:02:07;;;;;;;35.43;24.10;;;10.70;99.90;;;;;;5059558;28;20458;-71
2021/10/23 08:04:34;;;;;;;32.70;26.87;;;10.70;99.90;;;;;;5059608;28;20475;-67
2021/10/23 08:07:03;;;;;;;39.30;27.60;;;10.60;99.90;;;;;;5059608;28;20469;-68
2021/10/23 08:09:31;;;;;;;31.83;25.80;;;10.50;99.90;;;;;;5059543;28;20469;-68
2021/10/23 08:12:00;;;;;;;34.10;26.80;;;10.50;99.90;;;;;;5059517;28;20520;-68
2021/10/23 08:14:27;;;;;;;31.23;23.93;;;10.50;99.90;;;;;;5059489;28;20485;-69
2021/10/23 08:16:54;;;;;;;33.80;25.43;;;10.60;99.90;;;;;;5059929;28;20955;-69
2021/10/23 08:19:21;;;;;;;36.30;26.33;;;10.80;99.90;;;;;;5059115;28;20450;-69
2021/10/23 08:21:48;;;;;;;40.53;25.90;;;10.90;99.90;;;;;;5059213;28;21134;-68
2021/10/23 08:24:16;;;;;;;34.20;26.10;;;11.00;99.90;;;;;;5059435;28;20443;-68
2021/10/23 08:26:43;;;;;;;34.37;26.60;;;11.10;99.90;;;;;;5059487;28;20450;-68
2021/10/23 08:29:12;;;;;;;33.53;24.50;;;11.20;99.90;;;;;;5059496;28;20458;-67
2021/10/23 08:31:39;;;;;;;32.67;24.80;;;11.30;99.90;;;;;;5058877;28;20483;-69
2021/10/23 08:34:06;;;;;;;32.57;26.00;;;11.40;99.90;;;;;;5059183;28;20498;-67
2021/10/23 08:36:33;;;;;;;27.20;24.43;;;11.40;99.90;;;;;;5059477;28;20581;-66
2021/10/23 08:39:00;;;;;;;37.70;26.73;;;11.40;99.90;;;;;;5058921;28;20454;-66
2021/10/23 08:41:28;;;;;;;27.30;23.40;;;11.50;99.90;;;;;;5059028;28;20585;-69
2021/10/23 08:43:55;;;;;;;27.87;24.87;;;11.60;99.90;;;;;;5059133;28;20457;-69
2021/10/23 08:46:27;;;;;;;29.37;25.60;;;11.60;99.90;;;;;;5059316;28;20447;-68
2021/10/23 08:48:56;;;;;;;34.00;25.47;;;11.70;99.90;;;;;;5058898;28;20447;-66
2021/10/23 08:51:25;;;;;;;30.63;26.30;;;11.90;99.90;;;;;;5059099;28;20486;-68
2021/10/23 08:53:52;;;;;;;28.53;25.33;;;12.00;99.90;;;;;;5059318;28;20483;-69
2021/10/23 08:56:19;;;;;;;28.63;25.57;;;12.20;99.90;;;;;;5059171;28;20447;-65
2021/10/23 08:58:46;;;;;;;29.27;26.13;;;12.40;99.90;;;;;;5058423;28;20453;-67
2021/10/23 09:01:15;;;;;;;28.38;25.55;;;12.70;99.90;;;;;;5058574;28;20445;-65
2021/10/23 09:03:44;;;;;;;29.73;26.67;;;12.90;99.90;;;;;;5058968;28;20205;-68
2021/10/23 09:06:14;;;;;;;28.27;25.33;;;13.10;99.90;;;;;;5059221;28;20443;-66
2021/10/23 09:08:59;;;;;;;29.40;26.50;;;13.30;99.90;;;;;;5058664;28;20912;-66
2021/10/23 09:11:33;;;;;;;29.40;26.20;;;13.30;99.90;;;;;;5063098;28;20477;-66
2021/10/23 09:14:28;;;;;;;27.80;25.30;;;13.50;99.90;;;;;;5062699;28;20485;-65
2021/10/23 09:17:07;;;;;;;26.80;24.20;;;13.70;99.90;;;;;;5062717;28;20904;-65
2021/10/23 09:19:38;;;;;;;29.43;26.63;;;13.80;99.90;;;;;;5062765;28;20836;-65
2021/10/23 09:22:20;;;;;;;30.43;27.53;;;13.90;99.90;;;;;;5062791;28;20470;-67
2021/10/23 09:24:47;;;;;;;27.45;24.95;;;13.80;99.90;;;;;;5061906;28;20507;-66
2021/10/23 09:27:16;;;;;;;26.90;24.50;;;13.70;99.90;;;;;;5061634;28;20478;-67
2021/10/23 09:29:43;;;;;;;28.67;26.20;;;13.70;99.90;;;;;;5062205;28;20730;-66
2021/10/23 09:32:11;;;;;;;29.70;27.23;;;14.10;99.90;;;;;;5062395;28;20479;-66
2021/10/23 09:34:40;;;;;;;25.40;23.30;;;14.40;99.90;;;;;;5062533;28;21074;-65
2021/10/23 09:37:09;;;;;;;25.97;23.77;;;14.40;99.90;;;;;;5062532;28;20447;-65
2021/10/23 09:39:36;;;;;;;29.17;26.37;;;14.40;99.90;;;;;;5062597;28;20451;-65
2021/10/23 09:42:09;;;;;;;26.10;24.30;;;14.60;99.90;;;;;;5062411;28;20473;-65
2021/10/23 09:44:36;;;;;;;29.00;26.60;;;14.60;99.90;;;;;;5062623;28;20447;-64
2021/10/23 09:47:03;;;;;;;29.53;27.17;;;14.60;99.90;;;;;;5062031;28;20439;-65
2021/10/23 09:49:30;;;;;;;30.33;27.93;;;14.90;99.90;;;;;;5061972;28;20967;-64
2021/10/23 09:52:09;;;;;;;31.17;28.77;;;15.10;99.90;;;;;;5062003;28;20459;-65
2021/10/23 09:54:37;;;;;;;31.20;28.37;;;15.20;99.90;;;;;;5062308;28;20478;-66
2021/10/23 09:57:12;;;;;;;29.60;27.50;;;15.40;99.90;;;;;;5061793;28;20843;-66
2021/10/23 09:59:39;;;;;;;30.17;27.70;;;16.00;99.90;;;;;;5061718;28;20459;-66
2021/10/23 10:02:07;;;;;;;30.33;27.77;;;16.50;99.90;;;;;;5061785;28;20475;-64
2021/10/23 10:04:35;;;;;;;35.57;32.57;;;16.90;99.90;;;;;;5062032;28;20479;-65
2021/10/23 10:07:04;;;;;;;29.80;27.63;;;17.10;99.90;;;;;;5061411;28;20456;-65
2021/10/23 10:09:33;;;;;;;30.73;28.60;;;16.90;99.90;;;;;;5061298;28;20513;-66
2021/10/23 10:12:01;;;;;;;32.03;29.43;;;16.90;99.90;;;;;;5061619;28;20971;-66
2021/10/23 10:14:33;;;;;;;31.97;29.30;;;17.20;99.90;;;;;;5061726;28;20935;-66
2021/10/23 10:17:02;;;;;;;29.80;27.30;;;17.40;99.90;;;;;;5061865;28;20451;-66
2021/10/23 10:19:29;;;;;;;29.90;27.90;;;16.90;99.90;;;;;;5061390;28;20451;-66
2021/10/23 10:22:05;;;;;;;29.70;27.40;;;16.80;99.90;;;;;;5061364;28;21036;-66
2021/10/23 10:24:37;;;;;;;31.20;28.80;;;16.90;99.90;;;;;;5061473;28;20447;-66
2021/10/23 10:27:06;;;;;;;31.30;28.80;;;17.00;99.90;;;;;;5061420;28;20451;-66
2021/10/23 10:29:44;;;;;;;33.30;30.83;;;17.00;99.90;;;;;;5061029;28;20451;-66
2021/10/23 10:32:34;;;;;;;29.40;27.10;;;16.20;99.90;;;;;;5062136;28;20486;-66
2021/10/23 10:43:25;;;;;;;32.37;29.60;;;16.60;99.90;;;;;;5060919;28;20471;-66
2021/10/23 10:45:56;;;;;;;31.90;29.80;;;16.70;99.90;;;;;;5061095;28;20486;-64
2021/10/23 10:48:37;;;;;;;31.27;28.77;;;16.80;99.90;;;;;;5060846;28;20458;-66
2021/10/23 10:51:21;;;;;;;30.83;28.60;;;17.10;99.90;;;;;;5060777;28;20478;-66
2021/10/23 10:54:07;;;;;;;30.97;28.97;;;17.40;99.90;;;;;;5060894;28;20478;-66
2021/10/23 10:56:49;;;;;;;30.23;28.07;;;17.60;99.90;;;;;;5061081;28;20887;-64
2021/10/23 10:59:54;;;;;;;29.17;27.30;;;17.50;99.90;;;;;;5060456;28;20455;-66
2021/10/23 11:02:32;;;;;;;30.00;27.80;;;17.80;99.90;;;;;;5060646;28;20558;-65
2021/10/23 11:05:16;;;;;;;31.13;28.63;;;17.80;99.90;;;;;;5060701;28;20790;-66
2021/10/23 11:08:16;;;;;;;29.87;27.33;;;18.00;99.90;;;;;;5060721;28;20451;-66
2021/10/23 11:11:05;;;;;;;26.33;24.77;;;18.30;99.90;;;;;;5037793;28;20574;-65
2021/10/23 11:13:44;;;;;;;27.73;25.87;;;18.50;99.90;;;;;;5054483;28;20466;-65
2021/10/23 11:16:25;;;;;;;28.40;26.43;;;18.40;99.90;;;;;;5060758;28;20479;-66
2021/10/23 11:19:00;;;;;;;27.33;25.70;;;18.70;99.90;;;;;;5060509;28;20443;-66
2021/10/23 11:21:27;;;;;;;25.83;24.23;;;18.80;99.90;;;;;;5059798;28;20438;-67
2021/10/23 11:23:55;;;;;;;25.30;23.93;;;19.10;99.90;;;;;;5060106;28;20193;-66
2021/10/23 11:26:22;;;;;;;28.07;26.47;;;19.10;99.70;;;;;;5060666;28;20813;-66
2021/10/23 11:28:50;;;;;;;24.07;22.77;;;19.30;98.50;;;;;;5060444;28;20450;-67
2021/10/23 11:31:18;;;;;;;22.97;21.77;;;19.40;96.40;;;;;;5060350;28;20482;-67
2021/10/23 11:33:45;;;;;;;23.43;22.03;;;19.60;94.60;;;;;;5059581;28;20452;-66
2021/10/23 11:36:14;;;;;;;22.60;21.10;;;19.60;93.20;;;;;;5060512;28;20928;-66
2021/10/23 11:38:41;;;;;;;22.03;20.83;;;19.50;92.70;;;;;;5060126;28;20451;-65
2021/10/23 11:41:08;;;;;;;24.67;23.03;;;19.60;93.10;;;;;;5060180;28;20478;-65
2021/10/23 11:43:38;;;;;;;25.47;23.97;;;19.20;94.50;;;;;;5059924;28;20565;-64
2021/10/23 11:46:07;;;;;;;25.77;24.40;;;19.10;96.90;;;;;;5060110;28;20462;-66
2021/10/23 11:48:34;;;;;;;26.37;24.60;;;19.20;97.10;;;;;;5059708;28;20558;-66
2021/10/23 11:51:01;;;;;;;25.80;24.30;;;19.10;97.30;;;;;;5059922;28;20864;-66
2021/10/23 11:53:30;;;;;;;26.17;24.63;;;19.20;97.00;;;;;;5059567;28;20447;-66
2021/10/23 11:56:01;;;;;;;25.10;23.60;;;19.10;96.20;;;;;;5059954;28;20971;-66
2021/10/23 11:58:29;;;;;;;25.87;24.10;;;19.20;96.50;;;;;;5059635;28;20447;-67
2021/10/23 12:01:02;;;;;;;24.23;23.03;;;18.90;96.60;;;;;;5059664;28;21103;-66
2021/10/23 12:03:31;;;;;;;24.43;22.90;;;18.80;97.10;;;;;;5059769;28;20462;-66
2021/10/23 12:05:58;;;;;;;24.53;22.83;;;19.10;96.90;;;;;;5059517;28;20446;-64
2021/10/23 12:08:30;;;;;;;23.30;21.90;;;18.70;97.80;;;;;;5059443;28;20451;-65
2021/10/23 12:11:13;;;;;;;24.30;22.80;;;18.80;97.30;;;;;;5059643;28;20469;-66
2021/10/23 12:13:46;;;;;;;24.03;22.57;;;19.20;95.30;;;;;;5059328;28;20451;-66
2021/10/23 12:16:14;;;;;;;23.60;22.17;;;19.40;94.40;;;;;;5059048;28;20438;-65
2021/10/23 12:18:45;;;;;;;22.43;21.13;;;19.50;93.90;;;;;;5059580;28;20458;-65
2021/10/23 12:21:15;;;;;;;22.17;21.00;;;19.50;93.00;;;;;;5059410;28;21115;-65
2021/10/23 12:23:45;;;;;;;24.00;22.40;;;19.50;91.80;;;;;;5059525;28;20447;-66
2021/10/23 12:26:13;;;;;;;21.73;20.63;;;19.30;91.40;;;;;;5058956;28;21015;-65
2021/10/23 12:29:03;;;;;;;22.67;21.17;;;19.20;91.70;;;;;;5059050;28;20498;-65
2021/10/23 12:31:54;;;;;;;24.20;22.97;;;19.40;91.30;;;;;;5059427;28;20995;-65
2021/10/23 12:34:23;;;;;;;22.30;20.77;;;19.40;91.40;;;;;;5059351;28;21106;-64
2021/10/23 12:36:50;;;;;;;21.93;20.70;;;19.40;89.00;;;;;;5059486;28;20760;-65
2021/10/23 12:39:18;;;;;;;21.40;20.50;;;19.40;88.10;;;;;;5059070;28;20451;-64
2021/10/23 12:41:46;;;;;;;20.97;19.80;;;18.80;83.80;;;;;;5058969;28;20559;-66
2021/10/23 12:44:15;;;;;;;22.60;21.43;;;18.80;84.00;;;;;;5061584;28;20509;-65
2021/10/23 12:46:42;;;;;;;21.53;20.30;;;18.90;83.50;;;;;;5063579;28;20513;-65